createdAt,value
2019-03-21T00:00:27.651Z,1.37
2019-03-21T00:05:36.098Z,1.65
2019-03-21T00:11:25.298Z,1.82
2019-03-21T00:16:32.247Z,1.60
2019-03-21T00:21:38.738Z,1.62
2019-03-21T00:26:45.031Z,1.50
2019-03-21T00:31:51.678Z,1.40
2019-03-21T00:36:58.179Z,1.57
2019-03-21T00:42:04.588Z,1.55
2019-03-21T00:47:10.808Z,1.47
2019-03-21T00:52:17.388Z,1.40
2019-03-21T00:57:23.693Z,1.30
2019-03-21T01:02:30.109Z,1.35
2019-03-21T01:07:36.680Z,1.45
2019-03-21T01:12:43.228Z,1.55
2019-03-21T01:17:49.735Z,1.50
2019-03-21T01:22:55.897Z,1.25
2019-03-21T01:28:02.409Z,1.30
2019-03-21T01:33:09.018Z,1.45
2019-03-21T01:38:15.449Z,1.57
2019-03-21T01:43:22.198Z,2.00
2019-03-21T01:48:29.307Z,1.92
2019-03-21T01:53:35.638Z,1.65
2019-03-21T01:58:42.017Z,2.15
2019-03-21T02:03:48.273Z,1.40
2019-03-21T02:08:54.728Z,1.80
2019-03-21T02:14:01.169Z,1.52
2019-03-21T02:19:07.849Z,1.60
2019-03-21T02:24:14.218Z,1.87
2019-03-21T02:29:20.598Z,1.87
2019-03-21T02:34:27.069Z,1.85
2019-03-21T02:39:33.338Z,2.00
2019-03-21T02:44:39.979Z,1.75
2019-03-21T02:49:46.238Z,1.82
2019-03-21T02:54:51.968Z,1.62
2019-03-21T02:59:58.278Z,1.57
2019-03-21T03:05:04.119Z,1.67
2019-03-21T03:10:12.660Z,1.70
2019-03-21T03:15:23.010Z,1.50
2019-03-21T03:20:27.399Z,1.70
2019-03-21T03:25:34.211Z,1.65
2019-03-21T03:30:40.627Z,1.70
2019-03-21T03:35:48.408Z,1.67
2019-03-21T03:40:57.318Z,1.70
2019-03-21T03:46:03.707Z,1.35
2019-03-21T03:51:10.271Z,1.60
2019-03-21T03:56:16.592Z,1.70
2019-03-21T04:01:23.353Z,1.30
2019-03-21T04:06:29.860Z,1.65
2019-03-21T04:11:36.178Z,1.60
2019-03-21T04:16:42.529Z,1.62
2019-03-21T04:21:48.938Z,1.50
2019-03-21T04:26:55.438Z,1.65
2019-03-21T04:32:02.501Z,1.60
2019-03-21T04:37:08.949Z,1.50
2019-03-21T04:42:14.978Z,1.50
2019-03-21T04:47:21.328Z,1.60
2019-03-21T04:52:27.818Z,1.65
2019-03-21T04:57:34.318Z,1.47
2019-03-21T05:02:40.627Z,1.52
2019-03-21T05:07:46.923Z,1.50
2019-03-21T05:12:53.388Z,1.40
2019-03-21T05:18:02.808Z,1.57
2019-03-21T05:23:08.988Z,1.65
2019-03-21T05:28:15.378Z,1.70
2019-03-21T05:33:22.090Z,1.52
2019-03-21T05:38:29.027Z,1.37
2019-03-21T05:43:48.248Z,1.37
2019-03-21T05:48:54.678Z,1.42
2019-03-21T05:54:01.278Z,1.55
2019-03-21T05:59:07.778Z,1.60
2019-03-21T06:04:14.258Z,1.22
2019-03-21T06:09:21.838Z,1.50
2019-03-21T06:14:28.727Z,1.70
2019-03-21T06:19:56.208Z,1.25
2019-03-21T06:25:42.309Z,1.20
2019-03-21T06:30:48.901Z,1.55
2019-03-21T06:35:55.088Z,1.70
2019-03-21T06:41:01.357Z,1.85
2019-03-21T06:46:07.599Z,2.60
2019-03-21T06:51:13.919Z,2.55
2019-03-21T06:56:20.306Z,3.27
2019-03-21T07:01:26.765Z,2.45
2019-03-21T07:06:33.317Z,2.40
2019-03-21T07:11:39.132Z,2.25
2019-03-21T07:16:45.549Z,1.90
2019-03-21T07:21:52.459Z,1.75
2019-03-21T07:26:58.978Z,2.22
2019-03-21T07:32:05.648Z,2.40
2019-03-21T07:37:12.089Z,2.60
2019-03-21T07:42:18.319Z,1.95
2019-03-21T07:47:25.243Z,2.08
2019-03-21T07:52:31.661Z,2.75
2019-03-21T07:57:38.117Z,2.20
2019-03-21T08:02:44.619Z,2.17
2019-03-21T08:07:51.214Z,2.10
2019-03-21T08:12:57.658Z,1.77
2019-03-21T08:18:04.211Z,1.80
2019-03-21T08:23:10.569Z,2.02
2019-03-21T08:28:16.748Z,1.82
2019-03-21T08:33:23.049Z,1.98
2019-03-21T08:38:29.478Z,1.82
2019-03-21T08:43:36.068Z,2.00
2019-03-21T08:48:42.718Z,1.67
2019-03-21T08:53:48.979Z,1.70
2019-03-21T08:58:55.547Z,1.90
2019-03-21T09:04:01.969Z,1.72
2019-03-21T09:09:10.898Z,1.47
2019-03-21T09:14:17.640Z,1.75
2019-03-21T09:19:24.118Z,1.55
2019-03-21T09:24:30.441Z,1.87
2019-03-21T09:29:36.768Z,1.57
2019-03-21T09:34:43.038Z,1.80
2019-03-21T09:39:49.438Z,1.50
2019-03-21T09:44:55.862Z,1.72
2019-03-21T09:50:02.339Z,1.45
2019-03-21T09:55:09.108Z,1.35
2019-03-21T10:00:18.607Z,1.32
2019-03-21T10:05:25.018Z,1.42
2019-03-21T10:10:32.550Z,1.50
2019-03-21T10:15:38.778Z,1.25
2019-03-21T10:20:45.735Z,1.45
2019-03-21T10:25:52.082Z,1.42
2019-03-21T10:30:58.248Z,1.67
2019-03-21T10:36:04.828Z,1.60
2019-03-21T10:41:11.469Z,1.75
2019-03-21T10:46:17.898Z,1.70
2019-03-21T10:51:24.053Z,2.05
2019-03-21T10:56:30.357Z,3.12
2019-03-21T11:01:36.940Z,11.05
2019-03-21T11:06:43.220Z,7.30
2019-03-21T11:11:49.721Z,9.05
2019-03-21T11:16:56.896Z,8.43
2019-03-21T11:22:06.536Z,7.22
2019-03-21T11:27:11.998Z,5.30
2019-03-21T11:32:19.328Z,4.55
2019-03-21T11:37:25.829Z,4.33
2019-03-21T11:42:32.540Z,3.72
2019-03-21T11:47:42.005Z,3.10
2019-03-21T11:52:48.391Z,2.90
2019-03-21T11:57:55.749Z,2.50
2019-03-21T12:03:04.211Z,2.60
2019-03-21T12:08:11.469Z,2.35
2019-03-21T12:13:17.980Z,2.20
2019-03-21T12:18:24.845Z,2.40
2019-03-21T12:23:31.833Z,2.35
2019-03-21T12:28:39.037Z,2.02
2019-03-21T12:33:46.428Z,1.87
2019-03-21T12:38:53.679Z,1.90
2019-03-21T12:44:00.010Z,1.75
2019-03-21T12:49:24.894Z,2.00
2019-03-21T12:54:31.229Z,1.82
2019-03-21T12:59:38.458Z,2.00
2019-03-21T13:04:45.348Z,1.62
2019-03-21T13:09:52.030Z,2.27
2019-03-21T13:14:59.099Z,1.77
2019-03-21T13:20:06.239Z,1.52
2019-03-21T13:25:12.261Z,1.75
2019-03-21T13:30:18.692Z,1.70
2019-03-21T13:35:32.499Z,1.65
2019-03-21T13:40:33.258Z,1.47
2019-03-21T13:45:40.018Z,1.80
2019-03-21T13:50:47.199Z,1.57
2019-03-21T13:55:53.938Z,1.82
2019-03-21T14:01:00.068Z,1.72
2019-03-21T14:06:06.608Z,1.85
2019-03-21T14:11:12.918Z,1.57
2019-03-21T14:16:19.379Z,1.32
2019-03-21T14:21:25.868Z,1.57
2019-03-21T14:26:32.398Z,1.42
2019-03-21T14:31:38.879Z,1.72
2019-03-21T14:36:45.398Z,1.42
2019-03-21T14:41:51.787Z,1.30
2019-03-21T14:46:58.318Z,1.55
2019-03-21T14:52:04.722Z,1.25
2019-03-21T14:57:11.412Z,1.32
2019-03-21T15:02:17.820Z,1.32
2019-03-21T15:07:24.208Z,1.57
2019-03-21T15:12:30.769Z,1.50
2019-03-21T15:17:37.659Z,1.30
2019-03-21T15:22:44.431Z,1.30
2019-03-21T15:27:50.749Z,1.40
2019-03-21T15:32:56.891Z,1.57
2019-03-21T15:38:03.247Z,1.60
2019-03-21T15:43:09.568Z,1.45
2019-03-21T15:48:16.018Z,1.10
2019-03-21T15:53:22.269Z,1.30
2019-03-21T15:58:28.677Z,1.27
2019-03-21T16:03:35.243Z,2.60
2019-03-21T16:08:41.638Z,1.82
2019-03-21T16:13:47.998Z,1.60
2019-03-21T16:18:54.677Z,1.50
2019-03-21T16:24:05.500Z,1.42
2019-03-21T16:29:10.365Z,1.55
2019-03-21T16:34:17.906Z,1.60
2019-03-21T16:39:25.198Z,1.30
2019-03-21T16:44:32.408Z,1.55
2019-03-21T16:49:38.900Z,1.82
2019-03-21T16:54:45.248Z,1.52
2019-03-21T16:59:51.529Z,1.70
2019-03-21T17:04:57.983Z,1.75
2019-03-21T17:10:04.633Z,1.32
2019-03-21T17:15:11.649Z,1.40
2019-03-21T17:20:17.484Z,2.02
2019-03-21T17:25:23.808Z,1.82
2019-03-21T17:30:30.201Z,1.70
2019-03-21T17:35:36.549Z,1.87
2019-03-21T17:40:42.478Z,1.52
2019-03-21T17:45:48.592Z,1.70
2019-03-21T17:50:55.287Z,2.20
2019-03-21T17:56:01.638Z,1.70
2019-03-21T18:01:08.578Z,1.80
2019-03-21T18:06:14.978Z,1.60
2019-03-21T18:11:21.818Z,1.37
2019-03-21T18:16:28.578Z,1.40
2019-03-21T18:21:34.827Z,1.30
2019-03-21T18:26:41.198Z,1.30
2019-03-21T18:31:47.640Z,1.00
2019-03-21T18:36:54.158Z,1.40
2019-03-21T18:42:00.588Z,1.52
2019-03-21T18:47:06.748Z,1.37
2019-03-21T18:52:13.158Z,1.82
2019-03-21T18:57:19.638Z,1.27
2019-03-21T19:02:26.012Z,1.30
2019-03-21T19:07:32.288Z,1.12
2019-03-21T19:12:38.622Z,1.60
2019-03-21T19:17:45.031Z,1.80
2019-03-21T19:22:52.907Z,1.20
2019-03-21T19:28:00.091Z,1.85
2019-03-21T19:33:06.608Z,1.02
2019-03-21T19:38:13.938Z,1.05
2019-03-21T19:43:20.738Z,1.70
2019-03-21T19:48:27.150Z,1.50
2019-03-21T19:53:34.268Z,1.02
2019-03-21T19:58:41.027Z,1.45
2019-03-21T20:03:47.597Z,1.10
2019-03-21T20:08:56.585Z,1.57
2019-03-21T20:14:04.159Z,1.60
2019-03-21T20:19:10.540Z,1.32
2019-03-21T20:24:17.299Z,1.27
2019-03-21T20:29:23.338Z,1.20
2019-03-21T20:34:29.488Z,1.60
2019-03-21T20:39:36.348Z,1.50
2019-03-21T20:44:42.439Z,1.50
2019-03-21T20:49:48.558Z,1.30
2019-03-21T20:54:55.123Z,1.35
2019-03-21T21:00:01.412Z,1.40
2019-03-21T21:05:07.468Z,1.42
2019-03-21T21:10:13.768Z,1.10
2019-03-21T21:15:21.920Z,1.60
2019-03-21T21:20:30.035Z,1.67
2019-03-21T21:25:36.410Z,1.40
2019-03-21T21:30:42.633Z,1.40
2019-03-21T21:35:48.989Z,1.55
2019-03-21T21:40:55.169Z,1.40
2019-03-21T21:46:01.640Z,1.40
2019-03-21T21:51:08.068Z,1.50
2019-03-21T21:56:17.885Z,1.40
2019-03-21T22:01:22.313Z,1.52
2019-03-21T22:06:28.517Z,1.42
2019-03-21T22:11:35.069Z,1.82
2019-03-21T22:16:41.505Z,1.65
2019-03-21T22:21:48.001Z,1.92
2019-03-21T22:26:54.338Z,1.72
2019-03-21T22:32:00.928Z,1.57
2019-03-21T22:37:07.707Z,1.40
2019-03-21T22:42:14.028Z,1.82
2019-03-21T22:47:20.862Z,1.95
2019-03-21T22:52:27.361Z,1.75
2019-03-21T22:57:34.189Z,2.25
2019-03-21T23:02:41.239Z,2.00
2019-03-21T23:07:47.868Z,2.30
2019-03-21T23:12:54.088Z,1.77
2019-03-21T23:18:00.200Z,1.95
2019-03-21T23:23:06.588Z,1.80
2019-03-21T23:28:13.198Z,1.92
2019-03-21T23:33:19.930Z,2.20
2019-03-21T23:38:26.689Z,1.80
2019-03-21T23:43:33.050Z,2.10
2019-03-21T23:48:39.448Z,1.70
2019-03-21T23:53:46.579Z,2.05
2019-03-21T23:58:52.998Z,2.08
